East Ellsworth, WI (54010)

1:21 PM CDT on July 27, 2016 (GMT -0500)
KWIBELDE2 | | Change Station

Elev 1053 ft 44.79 °N, 92.46 °W | Updated 7 minutes ago

Mostly Cloudy
Mostly Cloudy
77.9 °F
Feels Like 80 °F
N
0.0
Wind Variable Wind from SSW
Gusts 6.0 mph

Today
High -- | Low -- °F
--% Chance of Precip.
Yesterday
High -- | Low -- °F
Precip. -- in
Pressure 29.96 in
Visibility 10.0 miles
Clouds Mostly Cloudy 12000 ft
Heat Index 80 °F
Dew Point 72 °F
Humidity 81%
Rainfall 0.00 in
Snow Depth Not available.
5:51 AM 8:41 PM
Last Quarter, 41% visible
METAR KRGK 271815Z AUTO 21003KT 10SM BKN120 27/19 A2996 RMK AO2 LTG DSNT NW
Pressure 29.96 in
Visibility 10.0 miles
Clouds Mostly Cloudy 12000 ft
Heat Index 80 °F
Dew Point 72 °F
Humidity 81%
Rainfall 0.00 in
Snow Depth Not available.
5:51 AM 8:41 PM
Last Quarter, 41% visible
METAR KRGK 271815Z AUTO 21003KT 10SM BKN120 27/19 A2996 RMK AO2 LTG DSNT NW

10-Day Weather Forecast

Almanac

Astronomy

Jul. 27, 2016 Rise Set
Actual Time
Civil Twilight
Nautical Twilight
Astronomical Twilight
Moon
Length of Visible Light
Length of Day
Tomorrow will be .
, % of the Moon is Illuminated

Today's Extremes

State Highs State Lows

Community

WunderPhotos

Upload Photos

1,927,894 photos uploaded!

WunderBlog® & News

Nearby

Air Quality

  Air Quality AQ Index Pollutant
Not available.

Snow Depth

Station Depth Elevation

Earthquake Activity

City Distance Mag. Time & Date
Minimum magnitude displayed is 2.5.

Coastal Water Temperatures

Place Temperature

Stations

Nearby Weather Stations

Station Location Temp. Windchill Dew Point Humidity Wind Precip. Elev Updated Type
                   

Watches & Warnings

There are currently no watches in effect.